LFKBLSZA

Guest
Details From LFKB - Bastia Poretta
To LSZA - Lugano
Flight Number -
Tags generated
Created
Modified
Stats Distance 209 nm / 387 km
Max Altitude 24,200 ft / 7,376 m
Waypoints 4
Social Downloads 0
Likes 0
Share VATSIM

Download

Looking for another format? Having issues loading an existing format? Contact us
Advertisement - Login to hide

Notes

Basic altitude profile: - Ascent Rate: 1800ft/min - Ascent Speed: 220kts - Cruise Altitude: 28000ft - Cruise Speed: 330kts - Descent Rate: 1800ft/min - Descent Speed: 200kts Options: - Use NATs: yes - Use PACOTS: yes - Use low airways: yes - Use high airways: yes

Route

LFKB LUKIM UN851 MONEB LSZA

ID Type Via Altitude Latitude Longitude Leg Dist Tot Dist Heading (true) Name
O LFKB APT - 0 ft / 0 m 42.55251˚ 9.48371˚ - 0 nm - Bastia Poretta
LUKIM FIX - 24,200 ft / 7,376 m 44.14000˚ 9.30861˚ 95 nm 95 nm 355° / 355° -
MONEB FIX UN851 (AWY-HI) 18,500 ft / 5,639 m 44.62639˚ 9.25056˚ 29 nm 124 nm 355° / 355° -
O LSZA APT - 0 ft / 0 m 46.00428˚ 8.91058˚ 83 nm 208 nm 350° / 350° Lugano

Altitude Profile

Advertisement - Login to hide

Weather


0- 5 10 15 20 25 30 35+ Temperature / ° C

Clouds and Precipitation
Forecast for 2017-12-13 12:00 UTC. Updated 5 minutes ago

Ground ~20,000 ft ~40,000 ft Winds

LFKB

Details ICAO LFKB (BIA)
Name Bastia Poretta
Region France
Timezone Europe/Paris (UTC+1.0)
Stats Elevation 25 ft / 8 m (AMSL)
Location 42.552508° 9.483709°
Runways 1
Magnetic Variation 2.484° E

METAR

LFKB 130900Z AUTO 25011KT CAVOK 12/M01 Q1018 NOSIG

Decode

TAF

TAF TAF LFKB 130800Z 1309/1409 24008KT 9999 FEW040 TEMPO 1314/1323 24010G20KT BECMG 1404/1406 25015G25KT TX14/1312Z TN08/1402Z

Decode

Departure Runways

ID Width Length Bearing (true) Bearing (mag) Surface Threshold Offset Overrun Length
16 148 ft / 45 m 8,273 ft / 2,522 m 162.83° 160.35° Concrete 0 ft / 0 m 131 ft / 40 m
34 148 ft / 45 m 8,273 ft / 2,522 m 342.84° 340.36° Concrete 0 ft / 0 m 0 ft / 0 m

LSZA

Details ICAO LSZA (LUG)
Name Lugano
Region Switzerland
Timezone Europe/Zurich (UTC+1.0)
Stats Elevation 915 ft / 279 m (AMSL)
Location 46.004275° 8.910579°
Runways 1
Magnetic Variation 2.423° E

METAR

LSZA 130920Z VRB02KT CAVOK 04/M02 Q1018 NOSIG

Decode

TAF

Not found

Destination Runways

ID Width Length Bearing (true) Bearing (mag) Surface Threshold Offset Overrun Length
01 98 ft / 30 m 4,430 ft / 1,350 m 18.79° 16.37° Asphalt 361 ft / 110 m 0 ft / 0 m
19 98 ft / 30 m 4,430 ft / 1,350 m 198.79° 196.37° Asphalt 673 ft / 205 m 0 ft / 0 m

Approach Navaids

Runway Type Ident Frequency Range Bearing (true) Bearing (mag) Slope Elevation
01 Localiser ILU 111.50 MHz 18 nm / 33 km 18.79° 16.37° - 928 ft / 283 m (AMSL)
01 Glidescope ILU 111.50 MHz 10 nm / 19 km 19.99° 17.57° 6.00° 928 ft / 283 m (AMSL)
01 DME ILU 111.50 MHz 18 nm / 33 km - - - 928 ft / 283 m (AMSL)

Popular Alternatives